sensor_id;sensor_type;location;lat;lon;timestamp;pressure;altitude;pressure_sealevel;temperature;humidity
75438;BME280;64015;49.392;15.582;2023-08-24T00:00:39;96090.63;;;18.00;84.61
75438;BME280;64015;49.392;15.582;2023-08-24T00:03:25;96098.53;;;17.83;85.64
75438;BME280;64015;49.392;15.582;2023-08-24T00:05:51;96089.25;;;17.80;86.40
75438;BME280;64015;49.392;15.582;2023-08-24T00:08:17;96089.56;;;17.79;86.46
75438;BME280;64015;49.392;15.582;2023-08-24T00:10:43;96089.50;;;17.70;87.16
75438;BME280;64015;49.392;15.582;2023-08-24T00:13:12;96094.47;;;17.63;88.18
75438;BME280;64015;49.392;15.582;2023-08-24T00:15:38;96088.16;;;17.59;88.22
75438;BME280;64015;49.392;15.582;2023-08-24T00:18:05;96086.69;;;17.53;88.63
75438;BME280;64015;49.392;15.582;2023-08-24T00:20:31;96092.44;;;17.46;88.55
75438;BME280;64015;49.392;15.582;2023-08-24T00:23:00;96087.41;;;17.45;88.49
75438;BME280;64015;49.392;15.582;2023-08-24T00:25:26;96092.25;;;17.43;89.82
75438;BME280;64015;49.392;15.582;2023-08-24T00:27:53;96088.63;;;17.39;90.08
75438;BME280;64015;49.392;15.582;2023-08-24T00:30:19;96095.03;;;17.38;89.80
75438;BME280;64015;49.392;15.582;2023-08-24T00:32:45;96087.16;;;17.33;90.76
75438;BME280;64015;49.392;15.582;2023-08-24T00:35:10;96086.78;;;17.26;90.76
75438;BME280;64015;49.392;15.582;2023-08-24T00:37:37;96083.25;;;17.16;91.25
75438;BME280;64015;49.392;15.582;2023-08-24T00:40:04;96088.72;;;17.11;91.29
75438;BME280;64015;49.392;15.582;2023-08-24T00:42:37;96095.72;;;17.07;91.20
75438;BME280;64015;49.392;15.582;2023-08-24T00:45:04;96097.88;;;17.05;91.41
75438;BME280;64015;49.392;15.582;2023-08-24T00:47:30;96093.19;;;17.02;92.40
75438;BME280;64015;49.392;15.582;2023-08-24T00:49:56;96093.19;;;17.02;92.94
75438;BME280;64015;49.392;15.582;2023-08-24T00:52:22;96092.69;;;17.00;93.30
75438;BME280;64015;49.392;15.582;2023-08-24T00:54:47;96090.94;;;16.96;92.49
75438;BME280;64015;49.392;15.582;2023-08-24T00:57:13;96091.81;;;16.91;93.41
75438;BME280;64015;49.392;15.582;2023-08-24T00:59:39;96093.81;;;16.86;93.59
75438;BME280;64015;49.392;15.582;2023-08-24T01:02:05;96094.81;;;16.76;94.63
75438;BME280;64015;49.392;15.582;2023-08-24T01:04:31;96087.97;;;16.70;94.94
75438;BME280;64015;49.392;15.582;2023-08-24T01:06:57;96097.66;;;16.66;94.64
75438;BME280;64015;49.392;15.582;2023-08-24T01:09:23;96087.88;;;16.61;95.91
75438;BME280;64015;49.392;15.582;2023-08-24T01:12:06;96093.00;;;16.58;96.14
75438;BME280;64015;49.392;15.582;2023-08-24T01:14:41;96086.09;;;16.57;95.64
75438;BME280;64015;49.392;15.582;2023-08-24T01:17:15;96082.34;;;16.58;95.84
75438;BME280;64015;49.392;15.582;2023-08-24T01:19:45;96081.56;;;16.57;95.72
75438;BME280;64015;49.392;15.582;2023-08-24T01:28:14;96089.84;;;16.42;96.33
75438;BME280;64015;49.392;15.582;2023-08-24T01:30:40;96094.19;;;16.38;96.38
75438;BME280;64015;49.392;15.582;2023-08-24T01:33:05;96093.19;;;16.34;96.54
75438;BME280;64015;49.392;15.582;2023-08-24T01:35:37;96092.41;;;16.33;96.51
75438;BME280;64015;49.392;15.582;2023-08-24T01:38:03;96095.16;;;16.28;96.93
75438;BME280;64015;49.392;15.582;2023-08-24T01:40:52;96084.53;;;16.28;97.10
75438;BME280;64015;49.392;15.582;2023-08-24T01:43:21;96080.28;;;16.27;97.15
75438;BME280;64015;49.392;15.582;2023-08-24T01:45:51;96083.34;;;16.21;97.50
75438;BME280;64015;49.392;15.582;2023-08-24T01:48:17;96085.50;;;16.19;97.53
75438;BME280;64015;49.392;15.582;2023-08-24T01:50:44;96082.53;;;16.20;97.06
75438;BME280;64015;49.392;15.582;2023-08-24T01:53:09;96083.69;;;16.14;96.96
75438;BME280;64015;49.392;15.582;2023-08-24T01:55:35;96086.53;;;16.04;97.37
75438;BME280;64015;49.392;15.582;2023-08-24T01:58:01;96090.06;;;15.86;98.79
75438;BME280;64015;49.392;15.582;2023-08-24T02:00:27;96084.25;;;15.84;99.24
75438;BME280;64015;49.392;15.582;2023-08-24T02:02:53;96082.47;;;15.79;100.00
75438;BME280;64015;49.392;15.582;2023-08-24T02:05:19;96079.28;;;15.77;100.00
75438;BME280;64015;49.392;15.582;2023-08-24T02:07:44;96080.09;;;15.78;100.00
75438;BME280;64015;49.392;15.582;2023-08-24T02:10:10;96068.94;;;15.76;99.74
75438;BME280;64015;49.392;15.582;2023-08-24T02:12:36;96071.59;;;15.76;99.82
75438;BME280;64015;49.392;15.582;2023-08-24T02:15:02;96071.03;;;15.79;100.00
75438;BME280;64015;49.392;15.582;2023-08-24T02:17:28;96065.63;;;15.84;99.39
75438;BME280;64015;49.392;15.582;2023-08-24T02:19:55;96064.63;;;15.80;99.73
75438;BME280;64015;49.392;15.582;2023-08-24T02:22:20;96064.50;;;15.71;99.90
75438;BME280;64015;49.392;15.582;2023-08-24T02:24:46;96064.50;;;15.71;99.38
75438;BME280;64015;49.392;15.582;2023-08-24T02:27:11;96064.31;;;15.67;99.55
75438;BME280;64015;49.392;15.582;2023-08-24T02:29:37;96067.06;;;15.62;99.01
75438;BME280;64015;49.392;15.582;2023-08-24T02:32:04;96060.72;;;15.58;99.99
75438;BME280;64015;49.392;15.582;2023-08-24T02:34:30;96059.16;;;15.57;100.00
75438;BME280;64015;49.392;15.582;2023-08-24T02:36:57;96056.50;;;15.57;100.00
75438;BME280;64015;49.392;15.582;2023-08-24T02:39:22;96061.38;;;15.50;100.00
75438;BME280;64015;49.392;15.582;2023-08-24T02:41:49;96060.97;;;15.43;99.81
75438;BME280;64015;49.392;15.582;2023-08-24T02:44:15;96058.16;;;15.35;100.00
75438;BME280;64015;49.392;15.582;2023-08-24T02:46:44;96058.19;;;15.16;100.00
75438;BME280;64015;49.392;15.582;2023-08-24T02:49:09;96059.25;;;15.15;100.00
75438;BME280;64015;49.392;15.582;2023-08-24T02:51:35;96063.72;;;15.19;100.00
75438;BME280;64015;49.392;15.582;2023-08-24T02:54:01;96057.03;;;15.22;100.00
75438;BME280;64015;49.392;15.582;2023-08-24T02:56:26;96059.78;;;15.17;100.00
75438;BME280;64015;49.392;15.582;2023-08-24T02:58:52;96055.81;;;15.14;100.00
75438;BME280;64015;49.392;15.582;2023-08-24T03:01:18;96049.72;;;15.14;100.00
75438;BME280;64015;49.392;15.582;2023-08-24T03:03:43;96049.19;;;15.12;100.00
75438;BME280;64015;49.392;15.582;2023-08-24T03:06:09;96049.72;;;15.14;100.00
75438;BME280;64015;49.392;15.582;2023-08-24T03:08:36;96049.94;;;15.17;100.00
75438;BME280;64015;49.392;15.582;2023-08-24T03:11:02;96044.97;;;15.11;100.00
75438;BME280;64015;49.392;15.582;2023-08-24T03:13:29;96050.28;;;15.11;100.00
75438;BME280;64015;49.392;15.582;2023-08-24T03:15:55;96050.38;;;15.06;100.00
75438;BME280;64015;49.392;15.582;2023-08-24T03:18:21;96042.97;;;15.03;100.00
75438;BME280;64015;49.392;15.582;2023-08-24T03:20:48;96043.56;;;15.00;100.00
75438;BME280;64015;49.392;15.582;2023-08-24T03:23:15;96052.00;;;15.02;100.00
75438;BME280;64015;49.392;15.582;2023-08-24T03:25:41;96052.59;;;14.99;100.00
75438;BME280;64015;49.392;15.582;2023-08-24T03:28:09;96048.06;;;14.99;100.00
75438;BME280;64015;49.392;15.582;2023-08-24T03:30:45;96054.19;;;15.00;100.00
75438;BME280;64015;49.392;15.582;2023-08-24T03:33:11;96052.38;;;14.95;100.00
75438;BME280;64015;49.392;15.582;2023-08-24T03:35:38;96045.84;;;14.87;100.00
75438;BME280;64015;49.392;15.582;2023-08-24T03:38:03;96049.34;;;14.83;100.00
75438;BME280;64015;49.392;15.582;2023-08-24T03:40:29;96044.63;;;14.80;100.00
75438;BME280;64015;49.392;15.582;2023-08-24T03:42:56;96039.03;;;14.81;100.00
75438;BME280;64015;49.392;15.582;2023-08-24T03:45:21;96035.91;;;14.74;100.00
75438;BME280;64015;49.392;15.582;2023-08-24T03:47:48;96039.69;;;14.73;100.00
75438;BME280;64015;49.392;15.582;2023-08-24T03:50:14;96043.88;;;14.74;100.00
75438;BME280;64015;49.392;15.582;2023-08-24T03:52:39;96044.69;;;14.75;100.00
75438;BME280;64015;49.392;15.582;2023-08-24T03:55:06;96055.38;;;14.70;100.00
75438;BME280;64015;49.392;15.582;2023-08-24T03:57:32;96054.06;;;14.67;100.00
75438;BME280;64015;49.392;15.582;2023-08-24T03:59:58;96061.47;;;14.70;100.00
75438;BME280;64015;49.392;15.582;2023-08-24T04:02:24;96058.41;;;14.63;100.00
75438;BME280;64015;49.392;15.582;2023-08-24T04:04:52;96071.78;;;14.53;100.00
75438;BME280;64015;49.392;15.582;2023-08-24T04:07:18;96063.09;;;14.47;100.00
75438;BME280;64015;49.392;15.582;2023-08-24T04:09:44;96065.81;;;14.42;100.00
75438;BME280;64015;49.392;15.582;2023-08-24T04:12:11;96069.19;;;14.48;100.00
75438;BME280;64015;49.392;15.582;2023-08-24T04:14:36;96077.59;;;14.55;100.00
75438;BME280;64015;49.392;15.582;2023-08-24T04:17:02;96074.94;;;14.55;100.00
75438;BME280;64015;49.392;15.582;2023-08-24T04:19:28;96079.69;;;14.58;100.00
75438;BME280;64015;49.392;15.582;2023-08-24T04:21:54;96072.59;;;14.53;100.00
75438;BME280;64015;49.392;15.582;2023-08-24T04:24:19;96084.00;;;14.54;100.00
75438;BME280;64015;49.392;15.582;2023-08-24T04:26:45;96081.91;;;14.51;100.00
75438;BME280;64015;49.392;15.582;2023-08-24T04:29:11;96082.19;;;14.49;100.00
75438;BME280;64015;49.392;15.582;2023-08-24T04:31:37;96082.97;;;14.50;100.00
75438;BME280;64015;49.392;15.582;2023-08-24T04:34:05;96084.28;;;14.52;100.00
75438;BME280;64015;49.392;15.582;2023-08-24T04:36:31;96080.25;;;14.55;100.00
75438;BME280;64015;49.392;15.582;2023-08-24T04:38:56;96087.53;;;14.68;100.00
75438;BME280;64015;49.392;15.582;2023-08-24T04:41:22;96089.91;;;14.70;100.00
75438;BME280;64015;49.392;15.582;2023-08-24T04:43:48;96095.25;;;14.65;100.00
75438;BME280;64015;49.392;15.582;2023-08-24T04:46:13;96096.56;;;14.67;100.00
75438;BME280;64015;49.392;15.582;2023-08-24T04:48:39;96093.91;;;14.67;100.00
75438;BME280;64015;49.392;15.582;2023-08-24T04:51:05;96095.75;;;14.67;100.00
75438;BME280;64015;49.392;15.582;2023-08-24T04:53:30;96098.09;;;14.73;100.00
75438;BME280;64015;49.392;15.582;2023-08-24T04:55:56;96094.00;;;14.81;100.00
75438;BME280;64015;49.392;15.582;2023-08-24T04:58:22;96092.34;;;14.85;100.00
75438;BME280;64015;49.392;15.582;2023-08-24T05:00:48;96096.66;;;14.81;100.00
75438;BME280;64015;49.392;15.582;2023-08-24T05:03:14;96098.69;;;14.89;100.00
75438;BME280;64015;49.392;15.582;2023-08-24T05:05:40;96096.53;;;14.91;100.00
75438;BME280;64015;49.392;15.582;2023-08-24T05:08:06;96094.09;;;14.94;100.00
75438;BME280;64015;49.392;15.582;2023-08-24T05:10:35;96094.31;;;14.98;100.00
75438;BME280;64015;49.392;15.582;2023-08-24T05:13:01;96094.38;;;15.12;100.00
75438;BME280;64015;49.392;15.582;2023-08-24T05:15:27;96084.63;;;15.26;100.00
75438;BME280;64015;49.392;15.582;2023-08-24T05:17:53;96098.03;;;15.35;100.00
75438;BME280;64015;49.392;15.582;2023-08-24T05:20:21;96099.75;;;15.44;100.00
75438;BME280;64015;49.392;15.582;2023-08-24T05:22:47;96111.56;;;15.57;100.00
75438;BME280;64015;49.392;15.582;2023-08-24T05:25:13;96106.84;;;15.67;100.00
75438;BME280;64015;49.392;15.582;2023-08-24T05:27:39;96096.66;;;15.75;100.00
75438;BME280;64015;49.392;15.582;2023-08-24T05:30:06;96094.19;;;15.78;100.00
75438;BME280;64015;49.392;15.582;2023-08-24T05:32:32;96096.66;;;15.88;100.00
75438;BME280;64015;49.392;15.582;2023-08-24T05:34:57;96093.16;;;15.93;100.00
75438;BME280;64015;49.392;15.582;2023-08-24T05:37:24;96097.88;;;15.96;100.00
75438;BME280;64015;49.392;15.582;2023-08-24T05:39:50;96092.53;;;15.96;100.00
75438;BME280;64015;49.392;15.582;2023-08-24T05:42:15;96092.47;;;16.01;100.00
75438;BME280;64015;49.392;15.582;2023-08-24T05:44:41;96094.53;;;16.04;100.00
75438;BME280;64015;49.392;15.582;2023-08-24T05:47:06;96092.91;;;16.22;100.00
75438;BME280;64015;49.392;15.582;2023-08-24T05:49:32;96089.84;;;16.28;100.00
75438;BME280;64015;49.392;15.582;2023-08-24T05:51:58;96092.22;;;16.30;100.00
75438;BME280;64015;49.392;15.582;2023-08-24T05:54:23;96088.47;;;16.45;100.00
75438;BME280;64015;49.392;15.582;2023-08-24T05:56:49;96086.41;;;16.55;100.00
75438;BME280;64015;49.392;15.582;2023-08-24T05:59:15;96089.28;;;16.72;98.37
75438;BME280;64015;49.392;15.582;2023-08-24T06:01:41;96085.72;;;16.77;98.25
75438;BME280;64015;49.392;15.582;2023-08-24T06:04:07;96080.34;;;16.91;97.42
75438;BME280;64015;49.392;15.582;2023-08-24T06:06:33;96080.94;;;17.01;97.30
75438;BME280;64015;49.392;15.582;2023-08-24T06:08:59;96077.44;;;17.14;95.71
75438;BME280;64015;49.392;15.582;2023-08-24T06:11:25;96087.16;;;17.33;92.79
75438;BME280;64015;49.392;15.582;2023-08-24T06:13:50;96082.91;;;17.54;91.82
75438;BME280;64015;49.392;15.582;2023-08-24T06:16:19;96083.84;;;17.72;91.33
75438;BME280;64015;49.392;15.582;2023-08-24T06:18:45;96082.41;;;17.88;91.09
75438;BME280;64015;49.392;15.582;2023-08-24T06:21:11;96075.88;;;18.03;89.75
75438;BME280;64015;49.392;15.582;2023-08-24T06:23:38;96082.38;;;18.19;86.82
75438;BME280;64015;49.392;15.582;2023-08-24T06:26:05;96074.00;;;18.34;84.87
75438;BME280;64015;49.392;15.582;2023-08-24T06:28:31;96066.91;;;18.38;84.83
75438;BME280;64015;49.392;15.582;2023-08-24T06:30:56;96059.22;;;18.45;84.86
75438;BME280;64015;49.392;15.582;2023-08-24T06:33:29;96066.69;;;18.57;85.07
75438;BME280;64015;49.392;15.582;2023-08-24T06:35:59;96062.72;;;18.54;85.50
75438;BME280;64015;49.392;15.582;2023-08-24T06:38:25;96066.09;;;18.60;83.99
75438;BME280;64015;49.392;15.582;2023-08-24T06:40:51;96073.66;;;18.75;83.58
75438;BME280;64015;49.392;15.582;2023-08-24T06:43:17;96065.66;;;18.92;82.79
75438;BME280;64015;49.392;15.582;2023-08-24T06:45:45;96060.03;;;19.02;82.25
75438;BME280;64015;49.392;15.582;2023-08-24T06:48:11;96066.03;;;19.17;82.09
75438;BME280;64015;49.392;15.582;2023-08-24T06:50:37;96058.31;;;19.24;81.36
75438;BME280;64015;49.392;15.582;2023-08-24T06:53:05;96053.13;;;19.36;81.67
75438;BME280;64015;49.392;15.582;2023-08-24T06:55:31;96056.72;;;19.40;81.02
75438;BME280;64015;49.392;15.582;2023-08-24T06:57:57;96060.66;;;19.68;78.86
75438;BME280;64015;49.392;15.582;2023-08-24T07:00:23;96059.38;;;19.83;79.27
75438;BME280;64015;49.392;15.582;2023-08-24T07:02:49;96055.09;;;19.99;78.10
75438;BME280;64015;49.392;15.582;2023-08-24T07:05:15;96057.09;;;20.02;77.99
75438;BME280;64015;49.392;15.582;2023-08-24T07:07:45;96053.75;;;20.14;76.35
75438;BME280;64015;49.392;15.582;2023-08-24T07:10:11;96055.94;;;20.21;76.85
75438;BME280;64015;49.392;15.582;2023-08-24T07:12:37;96053.25;;;20.29;76.76
75438;BME280;64015;49.392;15.582;2023-08-24T07:15:07;96054.78;;;20.39;76.65
75438;BME280;64015;49.392;15.582;2023-08-24T07:17:33;96058.88;;;20.45;76.25
75438;BME280;64015;49.392;15.582;2023-08-24T07:19:58;96061.50;;;20.54;75.52
75438;BME280;64015;49.392;15.582;2023-08-24T07:22:24;96063.69;;;20.60;77.83
75438;BME280;64015;49.392;15.582;2023-08-24T07:24:52;96059.31;;;20.76;78.04
75438;BME280;64015;49.392;15.582;2023-08-24T07:27:18;96064.88;;;21.01;77.64
75438;BME280;64015;49.392;15.582;2023-08-24T07:29:44;96072.13;;;21.00;77.13
75438;BME280;64015;49.392;15.582;2023-08-24T07:32:10;96061.50;;;21.04;78.49
75438;BME280;64015;49.392;15.582;2023-08-24T07:34:36;96064.47;;;21.11;77.95
75438;BME280;64015;49.392;15.582;2023-08-24T07:37:01;96064.16;;;21.12;77.41
75438;BME280;64015;49.392;15.582;2023-08-24T07:39:27;96066.03;;;21.20;77.74
75438;BME280;64015;49.392;15.582;2023-08-24T07:41:53;96065.94;;;21.29;77.37
75438;BME280;64015;49.392;15.582;2023-08-24T07:44:19;96056.44;;;21.52;77.59
75438;BME280;64015;49.392;15.582;2023-08-24T07:46:44;96057.47;;;21.93;75.79
75438;BME280;64015;49.392;15.582;2023-08-24T07:49:10;96051.19;;;21.89;74.19
75438;BME280;64015;49.392;15.582;2023-08-24T07:51:36;96043.72;;;21.94;73.32
75438;BME280;64015;49.392;15.582;2023-08-24T07:54:02;96046.78;;;22.05;72.65
75438;BME280;64015;49.392;15.582;2023-08-24T07:56:30;96045.66;;;22.18;71.63
75438;BME280;64015;49.392;15.582;2023-08-24T07:58:55;96044.78;;;22.14;71.82
75438;BME280;64015;49.392;15.582;2023-08-24T08:01:21;96048.84;;;22.32;69.47
75438;BME280;64015;49.392;15.582;2023-08-24T08:03:47;96050.28;;;22.54;65.42
75438;BME280;64015;49.392;15.582;2023-08-24T08:06:13;96046.91;;;22.45;63.56
75438;BME280;64015;49.392;15.582;2023-08-24T08:08:39;96050.72;;;22.56;64.05
75438;BME280;64015;49.392;15.582;2023-08-24T08:11:05;96054.31;;;22.73;63.13
75438;BME280;64015;49.392;15.582;2023-08-24T08:13:30;96060.94;;;22.75;64.58
75438;BME280;64015;49.392;15.582;2023-08-24T08:16:06;96051.72;;;23.00;64.34
75438;BME280;64015;49.392;15.582;2023-08-24T08:18:33;96055.06;;;23.10;64.57
75438;BME280;64015;49.392;15.582;2023-08-24T08:21:00;96054.47;;;23.28;62.62
75438;BME280;64015;49.392;15.582;2023-08-24T08:23:25;96047.16;;;23.29;59.97
75438;BME280;64015;49.392;15.582;2023-08-24T08:25:51;96049.81;;;23.41;59.92
75438;BME280;64015;49.392;15.582;2023-08-24T08:28:17;96049.16;;;23.44;58.43
75438;BME280;64015;49.392;15.582;2023-08-24T08:30:44;96052.69;;;23.60;58.24
75438;BME280;64015;49.392;15.582;2023-08-24T08:33:10;96049.06;;;23.68;58.38
75438;BME280;64015;49.392;15.582;2023-08-24T08:35:36;96051.13;;;23.59;58.77
75438;BME280;64015;49.392;15.582;2023-08-24T08:38:03;96045.75;;;23.59;58.58
75438;BME280;64015;49.392;15.582;2023-08-24T08:40:30;96050.81;;;23.76;59.21
75438;BME280;64015;49.392;15.582;2023-08-24T08:42:57;96038.59;;;23.79;57.99
75438;BME280;64015;49.392;15.582;2023-08-24T08:45:26;96046.50;;;23.88;58.32
75438;BME280;64015;49.392;15.582;2023-08-24T08:47:56;96029.22;;;23.89;56.54
75438;BME280;64015;49.392;15.582;2023-08-24T08:50:23;96029.56;;;23.87;56.81
75438;BME280;64015;49.392;15.582;2023-08-24T08:52:49;96029.59;;;24.18;55.74
75438;BME280;64015;49.392;15.582;2023-08-24T08:55:15;96039.34;;;24.23;55.87
75438;BME280;64015;49.392;15.582;2023-08-24T08:57:41;96018.28;;;24.29;55.99
75438;BME280;64015;49.392;15.582;2023-08-24T09:00:11;96026.38;;;24.29;56.96
75438;BME280;64015;49.392;15.582;2023-08-24T09:02:42;96018.38;;;24.32;57.03
75438;BME280;64015;49.392;15.582;2023-08-24T09:05:10;96025.00;;;24.50;56.23
75438;BME280;64015;49.392;15.582;2023-08-24T09:07:35;96012.47;;;24.42;56.02
75438;BME280;64015;49.392;15.582;2023-08-24T09:10:03;96013.75;;;24.64;54.83
75438;BME280;64015;49.392;15.582;2023-08-24T09:12:33;96009.56;;;24.67;55.00
75438;BME280;64015;49.392;15.582;2023-08-24T09:14:59;96012.44;;;24.74;55.15
75438;BME280;64015;49.392;15.582;2023-08-24T09:17:25;96002.63;;;24.85;56.47
75438;BME280;64015;49.392;15.582;2023-08-24T09:19:57;96005.72;;;24.83;55.47
75438;BME280;64015;49.392;15.582;2023-08-24T09:22:23;95998.66;;;24.79;55.03
75438;BME280;64015;49.392;15.582;2023-08-24T09:24:49;96000.97;;;24.96;54.68
75438;BME280;64015;49.392;15.582;2023-08-24T09:27:19;96000.72;;;25.20;55.45
75438;BME280;64015;49.392;15.582;2023-08-24T09:29:49;96002.13;;;25.34;53.18
75438;BME280;64015;49.392;15.582;2023-08-24T09:32:20;95999.66;;;25.44;54.14
75438;BME280;64015;49.392;15.582;2023-08-24T09:34:47;95990.34;;;25.22;52.62
75438;BME280;64015;49.392;15.582;2023-08-24T09:37:14;95985.16;;;25.33;53.21
75438;BME280;64015;49.392;15.582;2023-08-24T09:39:41;95986.63;;;25.50;54.04
75438;BME280;64015;49.392;15.582;2023-08-24T09:42:07;95986.72;;;25.34;51.97
75438;BME280;64015;49.392;15.582;2023-08-24T09:44:33;95976.94;;;25.49;52.93
75438;BME280;64015;49.392;15.582;2023-08-24T09:46:58;95973.00;;;25.43;53.25
75438;BME280;64015;49.392;15.582;2023-08-24T09:49:25;95969.78;;;25.76;52.75
75438;BME280;64015;49.392;15.582;2023-08-24T09:51:56;95970.91;;;25.97;53.65
75438;BME280;64015;49.392;15.582;2023-08-24T09:54:28;95966.25;;;25.94;52.87
75438;BME280;64015;49.392;15.582;2023-08-24T09:56:58;95970.13;;;25.97;52.50
75438;BME280;64015;49.392;15.582;2023-08-24T09:59:26;95969.59;;;26.11;53.36
75438;BME280;64015;49.392;15.582;2023-08-24T10:01:54;95972.97;;;26.27;53.16
75438;BME280;64015;49.392;15.582;2023-08-24T10:04:24;95962.78;;;26.43;52.82
75438;BME280;64015;49.392;15.582;2023-08-24T10:06:56;95971.94;;;26.61;52.06
75438;BME280;64015;49.392;15.582;2023-08-24T10:09:31;95972.34;;;26.63;50.08
75438;BME280;64015;49.392;15.582;2023-08-24T10:12:00;95968.88;;;26.63;50.22
75438;BME280;64015;49.392;15.582;2023-08-24T10:14:33;95971.22;;;26.64;50.49
75438;BME280;64015;49.392;15.582;2023-08-24T10:17:01;95971.00;;;26.77;50.14
75438;BME280;64015;49.392;15.582;2023-08-24T10:19:28;95962.25;;;26.87;49.98
75438;BME280;64015;49.392;15.582;2023-08-24T10:21:56;95968.97;;;26.96;51.30
75438;BME280;64015;49.392;15.582;2023-08-24T10:24:23;95951.38;;;27.13;48.81
75438;BME280;64015;49.392;15.582;2023-08-24T10:26:50;95960.16;;;27.36;48.84
75438;BME280;64015;49.392;15.582;2023-08-24T10:29:16;95952.13;;;27.47;48.81
75438;BME280;64015;49.392;15.582;2023-08-24T10:31:43;95949.22;;;27.59;47.43
75438;BME280;64015;49.392;15.582;2023-08-24T10:34:10;95947.88;;;27.83;47.47
75438;BME280;64015;49.392;15.582;2023-08-24T10:36:39;95946.50;;;28.03;46.80
75438;BME280;64015;49.392;15.582;2023-08-24T10:39:05;95940.81;;;28.15;45.46
75438;BME280;64015;49.392;15.582;2023-08-24T10:41:50;95936.59;;;28.21;46.84
75438;BME280;64015;49.392;15.582;2023-08-24T10:44:36;95937.22;;;28.04;45.63
75438;BME280;64015;49.392;15.582;2023-08-24T10:47:26;95933.34;;;28.05;44.77
75438;BME280;64015;49.392;15.582;2023-08-24T10:52:34;95931.22;;;28.29;44.84
75438;BME280;64015;49.392;15.582;2023-08-24T10:55:03;95928.22;;;28.41;44.50
75438;BME280;64015;49.392;15.582;2023-08-24T10:57:37;95921.63;;;29.14;42.63
75438;BME280;64015;49.392;15.582;2023-08-24T11:00:08;95907.06;;;29.93;42.19
75438;BME280;64015;49.392;15.582;2023-08-24T11:02:53;95901.84;;;30.98;39.73
75438;BME280;64015;49.392;15.582;2023-08-24T11:05:28;95906.28;;;29.93;41.21
75438;BME280;64015;49.392;15.582;2023-08-24T11:08:05;95898.06;;;29.47;41.70
75438;BME280;64015;49.392;15.582;2023-08-24T11:13:16;95898.06;;;29.36;43.04
75438;BME280;64015;49.392;15.582;2023-08-24T11:15:46;95890.72;;;30.39;40.91
75438;BME280;64015;49.392;15.582;2023-08-24T11:20:47;95875.81;;;34.28;32.83
75438;BME280;64015;49.392;15.582;2023-08-24T11:23:15;95884.88;;;32.46;35.60
75438;BME280;64015;49.392;15.582;2023-08-24T11:25:41;95870.41;;;34.44;30.63
75438;BME280;64015;49.392;15.582;2023-08-24T11:28:06;95878.78;;;33.03;33.32
75438;BME280;64015;49.392;15.582;2023-08-24T11:30:33;95879.44;;;31.98;34.34
75438;BME280;64015;49.392;15.582;2023-08-24T11:33:00;95871.56;;;31.51;36.15
75438;BME280;64015;49.392;15.582;2023-08-24T11:35:34;95865.41;;;34.16;32.12
75438;BME280;64015;49.392;15.582;2023-08-24T11:38:00;95865.38;;;36.39;29.95
75438;BME280;64015;49.392;15.582;2023-08-24T11:40:26;95856.94;;;38.18;26.90
75438;BME280;64015;49.392;15.582;2023-08-24T11:42:55;95852.06;;;34.84;31.11
75438;BME280;64015;49.392;15.582;2023-08-24T11:45:22;95860.34;;;36.05;29.79
75438;BME280;64015;49.392;15.582;2023-08-24T11:47:48;95859.19;;;37.34;26.24
75438;BME280;64015;49.392;15.582;2023-08-24T11:50:16;95861.59;;;36.61;26.71
75438;BME280;64015;49.392;15.582;2023-08-24T11:52:42;95863.06;;;36.66;26.35
75438;BME280;64015;49.392;15.582;2023-08-24T11:55:10;95859.03;;;35.05;27.83
75438;BME280;64015;49.392;15.582;2023-08-24T11:57:37;95863.38;;;35.22;29.99
75438;BME280;64015;49.392;15.582;2023-08-24T12:00:05;95860.53;;;37.00;27.09
75438;BME280;64015;49.392;15.582;2023-08-24T12:02:32;95849.31;;;38.22;24.78
75438;BME280;64015;49.392;15.582;2023-08-24T12:04:58;95852.47;;;39.11;24.52
75438;BME280;64015;49.392;15.582;2023-08-24T12:07:25;95854.25;;;40.16;23.58
75438;BME280;64015;49.392;15.582;2023-08-24T12:09:52;95846.94;;;40.49;22.60
75438;BME280;64015;49.392;15.582;2023-08-24T12:12:19;95839.84;;;40.57;23.27
75438;BME280;64015;49.392;15.582;2023-08-24T12:14:47;95834.78;;;40.83;22.31
75438;BME280;64015;49.392;15.582;2023-08-24T12:17:14;95834.28;;;40.94;23.45
75438;BME280;64015;49.392;15.582;2023-08-24T12:19:41;95827.03;;;41.15;21.87
75438;BME280;64015;49.392;15.582;2023-08-24T12:22:16;95841.72;;;38.13;23.74
75438;BME280;64015;49.392;15.582;2023-08-24T12:24:46;95840.78;;;36.48;26.65
75438;BME280;64015;49.392;15.582;2023-08-24T12:29:45;95830.16;;;35.00;27.96
75438;BME280;64015;49.392;15.582;2023-08-24T12:32:11;95830.53;;;36.19;25.76
75438;BME280;64015;49.392;15.582;2023-08-24T12:34:37;95827.47;;;36.75;25.02
75438;BME280;64015;49.392;15.582;2023-08-24T12:37:02;95832.44;;;36.51;25.86
75438;BME280;64015;49.392;15.582;2023-08-24T12:39:34;95822.59;;;33.82;29.20
75438;BME280;64015;49.392;15.582;2023-08-24T12:42:00;95815.06;;;34.92;27.03
75438;BME280;64015;49.392;15.582;2023-08-24T12:44:26;95801.22;;;34.99;27.75
75438;BME280;64015;49.392;15.582;2023-08-24T12:46:51;95806.06;;;36.95;25.61
75438;BME280;64015;49.392;15.582;2023-08-24T12:49:17;95797.09;;;38.18;24.89
75438;BME280;64015;49.392;15.582;2023-08-24T12:51:43;95799.41;;;39.07;22.84
75438;BME280;64015;49.392;15.582;2023-08-24T12:54:08;95811.50;;;37.37;24.55
75438;BME280;64015;49.392;15.582;2023-08-24T12:56:35;95799.84;;;37.33;25.28
75438;BME280;64015;49.392;15.582;2023-08-24T12:59:01;95797.34;;;36.72;25.20
75438;BME280;64015;49.392;15.582;2023-08-24T13:01:27;95782.44;;;38.43;24.46
75438;BME280;64015;49.392;15.582;2023-08-24T13:03:52;95775.75;;;39.86;22.55